Preview of NWS' New Version of Forecast
This preview is not operational and should not be used for support decisions.

Terminal Aerodrome Forecast (TAF)

Issued by National Weather Service (NWS)

                            
000
FTUS46 KMFR 211942 AAA
TAFRBG
TAF AMD
KRBG 211942Z 2120/2218 36006KT P6SM -RA BKN030 BKN150
      TEMPO 2120/2124 2SM RA BR OVC010
     FM220500 36005KT P6SM BKN020 OVC030=